Time;durP1;ratioP1;P1;durP2;ratioP2;P2;SDS_P1;SDS_P2;PMS_P1;PMS_P2;Temp;Humidity;BMP_temperature;BMP_pressure;BME280_temperature;BME280_humidity;BME280_pressure;Samples;Min_cycle;Max_cycle;Signal;HPM_P1;HPM_P2
2021/12/25 00:01:15;;;;;;;1.08;0.40;;;14.90;41.90;;;;;;5137372;27;20052;-66
2021/12/25 00:03:56;;;;;;;2.05;0.40;;;14.90;41.80;;;;;;5154660;27;20043;-66
2021/12/25 00:06:24;;;;;;;2.25;0.60;;;14.90;41.90;;;;;;5155293;27;20050;-66
2021/12/25 00:08:50;;;;;;;1.33;0.57;;;14.80;41.80;;;;;;5136985;27;20490;-66
2021/12/25 00:11:16;;;;;;;2.78;0.85;;;14.80;41.80;;;;;;5155559;27;20083;-66
2021/12/25 00:13:42;;;;;;;2.45;0.70;;;14.80;41.80;;;;;;5155449;27;20034;-66
2021/12/25 00:16:09;;;;;;;1.17;0.47;;;14.80;41.80;;;;;;5155317;27;20118;-66
2021/12/25 00:18:36;;;;;;;2.08;0.45;;;14.80;41.80;;;;;;5155425;27;20038;-66
2021/12/25 00:21:02;;;;;;;1.65;0.60;;;14.80;41.80;;;;;;5137069;27;20054;-66
2021/12/25 00:23:28;;;;;;;1.58;0.57;;;14.80;41.70;;;;;;5137123;27;20057;-66
2021/12/25 00:26:00;;;;;;;3.03;0.63;;;14.80;41.60;;;;;;5136716;27;20541;-66
2021/12/25 00:33:57;;;;;;;1.50;0.32;;;14.70;41.40;;;;;;5089366;28;20455;-66
2021/12/25 00:36:24;;;;;;;0.98;0.35;;;14.80;41.30;;;;;;5088167;28;20040;-66
2021/12/25 00:38:51;;;;;;;2.72;0.57;;;14.70;41.20;;;;;;5088297;28;20384;-66
2021/12/25 00:41:19;;;;;;;1.33;0.30;;;14.70;41.20;;;;;;5089310;28;20476;-66
2021/12/25 00:43:46;;;;;;;1.35;0.38;;;14.70;41.20;;;;;;5087939;28;20044;-66
2021/12/25 00:46:11;;;;;;;1.55;0.35;;;14.60;41.20;;;;;;5087989;28;20044;-66
2021/12/25 00:48:37;;;;;;;2.45;0.38;;;14.60;41.10;;;;;;5088186;28;20043;-66
2021/12/25 00:51:03;;;;;;;1.40;0.40;;;14.60;41.10;;;;;;5089181;28;20051;-66
2021/12/25 00:53:29;;;;;;;1.23;0.30;;;14.60;41.00;;;;;;5087745;28;20036;-66
2021/12/25 00:55:55;;;;;;;1.80;0.30;;;14.60;41.10;;;;;;5087781;28;20404;-66
2021/12/25 00:58:21;;;;;;;0.93;0.30;;;14.60;41.00;;;;;;5087708;28;20051;-66
2021/12/25 01:00:47;;;;;;;1.85;0.40;;;14.60;40.90;;;;;;5088989;28;20047;-66
2021/12/25 01:03:13;;;;;;;1.40;0.40;;;14.60;40.90;;;;;;5087891;28;20040;-66
2021/12/25 01:05:40;;;;;;;1.02;0.20;;;14.60;40.80;;;;;;5087884;28;20361;-66
2021/12/25 01:08:07;;;;;;;1.80;0.38;;;14.50;40.70;;;;;;5088893;28;20040;-66
2021/12/25 01:10:34;;;;;;;1.27;0.30;;;14.50;40.70;;;;;;5087447;28;20044;-66
2021/12/25 01:16:02;;;;;;;0.98;0.30;;;14.50;40.60;;;;;;5089309;27;20451;-65
2021/12/25 01:19:00;;;;;;;1.27;0.20;;;14.50;40.50;;;;;;5088184;28;20496;-66
2021/12/25 01:29:33;;;;;;;0.57;0.20;;;14.40;40.30;;;;;;5088102;28;20411;-65
2021/12/25 01:48:24;;;;;;;1.98;0.20;;;14.20;39.80;;;;;;5128829;28;20047;-65
2021/12/25 01:50:50;;;;;;;1.00;0.20;;;14.20;39.90;;;;;;5129236;28;20051;-66
2021/12/25 01:53:16;;;;;;;1.40;0.20;;;14.20;39.90;;;;;;5129307;28;20096;-65
2021/12/25 01:55:42;;;;;;;0.88;0.30;;;14.20;39.90;;;;;;5129064;28;20103;-65
2021/12/25 01:58:08;;;;;;;2.03;0.43;;;14.20;39.70;;;;;;5128734;28;20388;-65
2021/12/25 02:00:42;;;;;;;1.17;0.20;;;14.20;39.70;;;;;;5128786;28;20039;-65
2021/12/25 02:03:10;;;;;;;1.70;0.20;;;14.10;39.60;;;;;;5129875;27;20072;-65
2021/12/25 02:05:36;;;;;;;1.55;0.20;;;14.20;39.70;;;;;;5130166;27;20031;-65
2021/12/25 02:08:02;;;;;;;0.88;0.13;;;14.10;39.60;;;;;;5128649;28;20092;-65
2021/12/25 02:10:28;;;;;;;2.40;0.10;;;14.10;39.60;;;;;;5128810;28;20449;-65
2021/12/25 02:12:54;;;;;;;0.77;0.20;;;14.10;39.50;;;;;;5129913;28;20032;-65
2021/12/25 02:15:22;;;;;;;1.92;0.50;;;14.00;39.60;;;;;;5129780;27;20379;-65
2021/12/25 02:20:36;;;;;;;1.10;0.20;;;14.00;39.40;;;;;;5130316;27;20861;-65
2021/12/25 02:23:10;;;;;;;0.90;0.22;;;14.00;39.30;;;;;;5129006;28;20475;-65
2021/12/25 02:25:36;;;;;;;0.57;0.13;;;14.00;39.30;;;;;;5129224;28;20084;-65
2021/12/25 02:28:07;;;;;;;1.80;0.20;;;13.90;39.30;;;;;;5128879;28;20035;-65
2021/12/25 02:30:33;;;;;;;0.75;0.20;;;13.90;39.20;;;;;;5129480;27;20074;-65
2021/12/25 02:32:59;;;;;;;0.63;0.10;;;13.90;39.10;;;;;;5128767;28;20483;-65
2021/12/25 02:35:26;;;;;;;1.27;0.30;;;13.90;39.10;;;;;;5130002;27;20038;-65
2021/12/25 02:37:53;;;;;;;1.05;0.13;;;14.00;39.20;;;;;;5128726;27;20063;-64
2021/12/25 02:40:18;;;;;;;1.23;0.10;;;13.90;39.20;;;;;;5128584;28;20471;-64
2021/12/25 02:42:44;;;;;;;0.52;0.10;;;13.90;39.00;;;;;;5129995;28;20118;-64
2021/12/25 02:45:16;;;;;;;0.77;0.20;;;13.90;39.00;;;;;;5130055;28;20259;-64
2021/12/25 02:47:46;;;;;;;1.33;0.52;;;13.90;39.00;;;;;;5129783;27;20035;-65
2021/12/25 02:50:20;;;;;;;2.45;0.45;;;13.90;38.90;;;;;;5128768;28;20047;-64
2021/12/25 02:52:46;;;;;;;2.63;0.30;;;13.80;38.90;;;;;;5129711;27;20058;-64
2021/12/25 02:55:12;;;;;;;1.42;0.20;;;13.80;38.80;;;;;;5128702;28;20475;-64
2021/12/25 02:57:37;;;;;;;1.88;0.30;;;13.80;38.80;;;;;;5129943;28;20474;-64
2021/12/25 03:00:08;;;;;;;0.57;0.20;;;13.80;38.70;;;;;;5129518;28;20050;-64
2021/12/25 03:02:34;;;;;;;0.85;0.20;;;13.80;38.70;;;;;;5129522;27;20032;-65
2021/12/25 03:05:00;;;;;;;0.93;0.10;;;13.80;38.70;;;;;;5129672;27;20047;-64
2021/12/25 03:07:26;;;;;;;1.42;0.20;;;13.80;38.70;;;;;;5129354;27;20035;-64
2021/12/25 03:09:52;;;;;;;0.60;0.10;;;13.80;38.60;;;;;;5128201;28;20057;-64
2021/12/25 03:12:31;;;;;;;0.80;0.10;;;13.70;38.50;;;;;;5129170;28;20046;-64
2021/12/25 03:15:08;;;;;;;0.65;0.20;;;13.70;38.50;;;;;;5129455;27;20048;-63
2021/12/25 03:17:35;;;;;;;1.15;0.30;;;13.60;38.40;;;;;;5127873;28;20047;-65
2021/12/25 03:20:08;;;;;;;0.60;0.25;;;13.70;38.50;;;;;;5128867;27;20059;-64
2021/12/25 03:22:35;;;;;;;1.13;0.13;;;13.70;38.40;;;;;;5128093;28;20057;-64
2021/12/25 03:25:01;;;;;;;0.40;0.10;;;13.60;38.40;;;;;;5127983;28;20047;-64
2021/12/25 03:27:27;;;;;;;1.05;0.15;;;13.70;38.40;;;;;;5127823;28;20440;-64
2021/12/25 03:29:53;;;;;;;0.63;0.10;;;13.70;38.20;;;;;;5124892;28;20122;-64
2021/12/25 03:32:19;;;;;;;1.23;0.28;;;13.90;38.10;;;;;;5115254;28;20036;-64
2021/12/25 03:34:44;;;;;;;2.20;0.20;;;14.10;37.80;;;;;;5115211;28;20073;-65
2021/12/25 03:37:10;;;;;;;0.75;0.13;;;14.30;37.50;;;;;;5113965;28;20039;-65
2021/12/25 03:39:36;;;;;;;0.43;0.10;;;14.60;37.00;;;;;;5113852;28;20050;-65
2021/12/25 03:42:05;;;;;;;0.77;0.10;;;15.00;36.70;;;;;;5114000;28;20048;-65
2021/12/25 03:44:32;;;;;;;0.43;0.10;;;15.40;36.00;;;;;;5113953;28;20491;-64
2021/12/25 03:47:03;;;;;;;0.80;0.10;;;15.80;35.30;;;;;;5114070;28;20115;-64
2021/12/25 03:53:08;;;;;;;0.80;0.10;;;16.20;34.80;;;;;;5114946;28;20050;-65
2021/12/25 03:57:57;;;;;;;0.80;0.20;;;17.40;33.00;;;;;;5114643;28;20062;-64
2021/12/25 04:00:29;;;;;;;;;;;17.60;32.50;;;;;;5113815;28;20039;-65
2021/12/25 04:02:59;;;;;;;1.95;0.20;;;17.70;31.50;;;;;;5113650;28;19972;-65
2021/12/25 04:05:29;;;;;;;0.93;0.10;;;17.80;32.20;;;;;;5114621;28;20069;-64
2021/12/25 04:10:39;;;;;;;1.25;0.30;;;17.80;31.80;;;;;;5130153;27;20383;-65
2021/12/25 04:13:09;;;;;;;1.10;0.15;;;17.70;31.50;;;;;;5128976;28;20054;-64
2021/12/25 04:15:36;;;;;;;1.05;0.17;;;17.60;31.40;;;;;;5128806;28;20051;-65
2021/12/25 04:18:02;;;;;;;0.43;0.10;;;17.60;31.40;;;;;;5130128;27;20039;-65
2021/12/25 04:20:29;;;;;;;0.95;0.10;;;17.50;31.40;;;;;;5130086;27;20039;-65
2021/12/25 04:23:02;;;;;;;0.95;0.10;;;17.40;31.50;;;;;;5128827;28;20540;-65
2021/12/25 04:25:31;;;;;;;0.50;0.10;;;17.30;31.50;;;;;;5128697;28;20100;-64
2021/12/25 04:28:04;;;;;;;0.65;0.10;;;17.20;31.60;;;;;;5128914;28;20090;-65
2021/12/25 04:30:39;;;;;;;0.82;0.10;;;17.10;31.60;;;;;;5130110;27;20114;-65
2021/12/25 05:03:58;;;;;;;0.40;0.10;;;15.70;32.30;;;;;;5171452;27;20054;-65
2021/12/25 05:06:08;;;;;;;0.43;0.17;;;15.60;32.30;;;;;;5152736;27;20049;-65
2021/12/25 05:08:33;;;;;;;0.50;0.10;;;15.50;32.30;;;;;;5153069;27;20043;-65
2021/12/25 05:10:59;;;;;;;0.63;0.10;;;15.30;32.40;;;;;;5171647;27;20039;-65
2021/12/25 05:13:25;;;;;;;0.70;0.20;;;15.20;32.50;;;;;;5171338;27;20038;-65
2021/12/25 05:15:50;;;;;;;0.60;0.10;;;15.10;32.50;;;;;;5171371;27;20098;-65
2021/12/25 05:18:17;;;;;;;1.50;0.00;;;15.00;32.70;;;;;;5171155;27;20042;-65
2021/12/25 05:20:42;;;;;;;0.73;0.10;;;14.90;32.70;;;;;;5152839;27;20095;-65
2021/12/25 05:23:09;;;;;;;1.05;0.10;;;14.80;32.90;;;;;;5171363;27;20438;-65
2021/12/25 05:25:35;;;;;;;1.05;0.10;;;14.70;33.00;;;;;;5152742;27;20050;-65
2021/12/25 05:28:02;;;;;;;1.00;0.30;;;14.60;33.00;;;;;;5152460;27;20038;-65
2021/12/25 05:30:29;;;;;;;0.30;0.00;;;14.50;33.10;;;;;;5152406;27;20046;-65
2021/12/25 05:32:55;;;;;;;0.30;0.10;;;14.50;33.30;;;;;;5170985;27;20049;-65
2021/12/25 05:35:21;;;;;;;0.55;0.10;;;14.40;33.30;;;;;;5170986;27;20470;-65
2021/12/25 05:37:47;;;;;;;0.93;0.10;;;14.30;33.40;;;;;;5152526;27;20489;-65
2021/12/25 05:40:13;;;;;;;0.63;0.05;;;14.20;33.40;;;;;;5171255;27;20428;-65
2021/12/25 05:42:39;;;;;;;1.30;0.20;;;14.10;33.50;;;;;;5152460;27;20046;-66
2021/12/25 05:45:06;;;;;;;1.33;0.13;;;14.00;33.60;;;;;;5170818;27;20045;-65
2021/12/25 05:47:31;;;;;;;0.30;0.10;;;14.00;33.80;;;;;;5152346;27;20394;-65
2021/12/25 05:49:57;;;;;;;0.40;0.08;;;13.80;33.70;;;;;;5170480;27;20030;-65
2021/12/25 05:52:23;;;;;;;0.40;0.00;;;13.80;33.90;;;;;;5151756;27;20051;-66
2021/12/25 05:54:49;;;;;;;0.40;0.10;;;13.70;34.00;;;;;;5170697;27;20378;-65
2021/12/25 05:57:14;;;;;;;0.80;0.10;;;13.70;34.10;;;;;;5170634;27;20045;-65
2021/12/25 05:59:40;;;;;;;0.25;0.10;;;13.60;34.20;;;;;;5152149;27;20477;-65
2021/12/25 06:02:06;;;;;;;0.20;0.05;;;13.60;34.20;;;;;;5147069;27;20504;-65
2021/12/25 06:04:31;;;;;;;0.25;0.10;;;13.50;34.30;;;;;;5156516;27;20042;-65
2021/12/25 06:06:57;;;;;;;0.60;0.08;;;13.60;34.50;;;;;;5138149;27;20066;-65
2021/12/25 06:09:23;;;;;;;0.25;0.00;;;13.70;34.50;;;;;;5156371;27;20043;-65
2021/12/25 06:11:49;;;;;;;0.38;0.05;;;13.90;34.30;;;;;;5137805;27;20122;-65
2021/12/25 06:14:20;;;;;;;1.02;0.10;;;14.10;34.00;;;;;;5134182;27;20039;-65
2021/12/25 06:16:47;;;;;;;0.50;0.00;;;14.40;33.60;;;;;;5135655;27;20039;-65
2021/12/25 06:19:12;;;;;;;1.58;0.05;;;14.70;33.20;;;;;;5135330;27;20043;-65
2021/12/25 06:21:38;;;;;;;0.20;0.00;;;15.10;32.80;;;;;;5135748;27;20046;-65
2021/12/25 06:24:05;;;;;;;0.40;0.20;;;15.50;32.40;;;;;;5117205;27;20134;-65
2021/12/25 06:26:32;;;;;;;1.27;0.10;;;15.90;32.00;;;;;;5117287;27;20117;-65
2021/12/25 06:29:01;;;;;;;0.73;0.00;;;16.20;31.40;;;;;;5135346;27;20071;-65
2021/12/25 06:31:27;;;;;;;1.42;0.10;;;16.60;30.90;;;;;;5116846;27;20120;-65
2021/12/25 06:33:57;;;;;;;0.17;0.00;;;17.00;30.50;;;;;;5116695;27;20073;-65
2021/12/25 06:36:22;;;;;;;0.20;0.03;;;17.30;30.10;;;;;;5117120;27;20118;-66
2021/12/25 06:38:48;;;;;;;0.70;0.10;;;17.50;29.90;;;;;;5134171;27;20604;-65
2021/12/25 06:41:14;;;;;;;0.30;0.10;;;17.60;29.70;;;;;;5116873;27;20047;-65
2021/12/25 06:43:41;;;;;;;0.30;0.00;;;17.80;29.60;;;;;;5116884;27;20035;-65
2021/12/25 06:46:07;;;;;;;0.13;0.00;;;17.80;29.30;;;;;;5116792;27;20500;-65
2021/12/25 06:48:33;;;;;;;0.55;0.00;;;17.80;29.30;;;;;;5135000;27;20113;-66
2021/12/25 06:50:59;;;;;;;0.40;0.05;;;17.70;29.20;;;;;;5134526;27;20497;-65
2021/12/25 06:53:24;;;;;;;1.02;0.10;;;17.70;29.20;;;;;;5135014;27;20455;-65
2021/12/25 06:55:50;;;;;;;0.25;0.00;;;17.60;29.10;;;;;;5134761;27;20105;-65
2021/12/25 06:58:16;;;;;;;0.98;0.00;;;17.50;29.10;;;;;;5134751;27;20436;-65
2021/12/25 07:00:42;;;;;;;0.43;0.00;;;17.40;29.10;;;;;;5134783;27;20056;-65
2021/12/25 07:03:07;;;;;;;0.40;0.20;;;17.30;29.20;;;;;;5116629;27;20043;-65
2021/12/25 07:05:33;;;;;;;1.00;0.10;;;17.10;29.20;;;;;;5134590;27;20556;-65
2021/12/25 07:07:58;;;;;;;0.50;0.00;;;17.00;29.10;;;;;;5116265;27;20051;-65
2021/12/25 07:10:24;;;;;;;0.25;0.00;;;16.90;29.10;;;;;;5134589;27;20054;-65
2021/12/25 07:12:53;;;;;;;0.40;0.10;;;16.70;29.20;;;;;;5116182;27;20551;-65
2021/12/25 07:15:19;;;;;;;0.47;0.00;;;16.60;29.20;;;;;;5131497;27;20049;-66
2021/12/25 07:17:45;;;;;;;0.30;0.00;;;16.50;29.30;;;;;;5136849;27;20039;-65
2021/12/25 07:20:11;;;;;;;0.30;0.00;;;16.30;29.30;;;;;;5155016;27;20035;-65
2021/12/25 07:22:37;;;;;;;0.30;0.10;;;16.20;29.40;;;;;;5136635;27;20058;-65
2021/12/25 07:25:04;;;;;;;0.30;0.00;;;16.10;29.50;;;;;;5136492;27;20035;-65
2021/12/25 07:27:32;;;;;;;0.30;0.00;;;16.00;29.40;;;;;;5136427;27;20098;-64
2021/12/25 07:29:58;;;;;;;0.30;0.10;;;15.90;29.50;;;;;;5136278;27;20114;-65
2021/12/25 07:32:24;;;;;;;0.52;0.22;;;15.80;29.60;;;;;;5136215;27;20163;-65
2021/12/25 07:34:50;;;;;;;0.55;0.03;;;15.70;29.70;;;;;;5154729;27;20031;-65
2021/12/25 07:37:17;;;;;;;0.85;0.10;;;15.60;29.70;;;;;;5136140;27;20042;-64
2021/12/25 07:39:43;;;;;;;0.20;0.00;;;15.50;29.70;;;;;;5136181;27;20066;-65
2021/12/25 07:42:10;;;;;;;0.45;0.10;;;15.40;29.80;;;;;;5154754;27;20118;-64
2021/12/25 07:44:35;;;;;;;0.45;0.00;;;15.30;29.80;;;;;;5154698;27;20045;-65
2021/12/25 07:47:08;;;;;;;0.10;0.00;;;15.10;29.80;;;;;;5135889;27;20050;-65
2021/12/25 07:49:34;;;;;;;0.30;0.00;;;15.10;29.80;;;;;;5154466;27;20048;-66
2021/12/25 07:51:59;;;;;;;0.50;0.10;;;14.90;29.90;;;;;;5154027;27;20129;-65
2021/12/25 07:54:25;;;;;;;0.77;0.10;;;14.80;30.00;;;;;;5136096;27;20081;-65
2021/12/25 07:56:51;;;;;;;1.25;0.10;;;14.70;30.00;;;;;;5135821;27;20478;-65
2021/12/25 07:59:17;;;;;;;0.63;0.00;;;14.60;30.00;;;;;;5135758;27;20039;-65
2021/12/25 08:01:43;;;;;;;0.38;0.00;;;14.50;30.00;;;;;;5135666;27;20043;-65
2021/12/25 08:04:10;;;;;;;0.30;0.00;;;14.30;30.10;;;;;;5154264;27;20091;-65
2021/12/25 08:06:35;;;;;;;0.30;0.00;;;14.30;30.90;;;;;;5135732;27;20087;-65
2021/12/25 08:09:04;;;;;;;0.25;0.00;;;14.20;30.40;;;;;;5135818;27;20038;-65
2021/12/25 08:11:38;;;;;;;1.08;0.43;;;14.10;30.40;;;;;;5135630;27;20042;-66
2021/12/25 08:14:04;;;;;;;0.10;0.00;;;14.00;30.20;;;;;;5154055;27;20509;-65
2021/12/25 08:16:32;;;;;;;0.32;0.05;;;13.90;30.60;;;;;;5153960;27;20035;-65
2021/12/25 08:18:58;;;;;;;0.25;0.00;;;13.90;30.70;;;;;;5153809;27;20038;-65
2021/12/25 08:21:23;;;;;;;0.32;0.00;;;14.10;30.80;;;;;;5135393;27;20567;-66
2021/12/25 08:23:50;;;;;;;0.22;0.03;;;14.40;30.60;;;;;;5153995;27;20039;-65
2021/12/25 08:26:15;;;;;;;0.17;0.00;;;14.80;30.20;;;;;;5153698;27;20038;-65
2021/12/25 08:28:41;;;;;;;0.30;0.20;;;15.20;29.90;;;;;;5135494;27;20398;-65
2021/12/25 08:31:07;;;;;;;0.30;0.00;;;15.60;29.60;;;;;;5135117;27;20051;-65
2021/12/25 08:33:33;;;;;;;0.30;0.00;;;16.00;29.20;;;;;;5135071;27;20046;-65
2021/12/25 08:35:59;;;;;;;0.43;0.10;;;16.40;28.90;;;;;;5153673;27;20034;-65
2021/12/25 08:38:24;;;;;;;0.15;0.00;;;16.80;28.60;;;;;;5135180;27;20397;-66
2021/12/25 08:40:54;;;;;;;1.45;0.30;;;17.10;28.30;;;;;;5135345;27;20471;-65
2021/12/25 08:43:24;;;;;;;1.33;0.10;;;17.40;28.00;;;;;;5135349;27;20440;-65
2021/12/25 08:46:01;;;;;;;1.10;0.05;;;17.60;27.70;;;;;;5135140;27;20375;-65
2021/12/25 08:48:26;;;;;;;0.63;0.20;;;17.80;27.50;;;;;;5153419;27;20045;-66
2021/12/25 08:50:55;;;;;;;0.65;0.10;;;17.90;27.30;;;;;;5134655;27;20047;-65
2021/12/25 08:53:23;;;;;;;0.40;0.03;;;17.90;27.30;;;;;;5134904;27;20042;-65
2021/12/25 08:55:50;;;;;;;0.20;0.00;;;17.90;27.20;;;;;;5153485;27;20452;-66
2021/12/25 08:58:16;;;;;;;0.40;0.00;;;17.90;27.20;;;;;;5134915;27;20042;-65
2021/12/25 09:00:43;;;;;;;0.20;0.00;;;17.80;27.10;;;;;;5135181;27;20072;-65
2021/12/25 09:03:09;;;;;;;0.80;0.00;;;17.70;27.10;;;;;;5153412;27;20039;-66
2021/12/25 09:05:35;;;;;;;0.20;0.00;;;17.60;27.20;;;;;;5134876;27;20382;-65
2021/12/25 09:08:02;;;;;;;0.10;0.00;;;17.50;27.20;;;;;;5135106;27;20051;-65
2021/12/25 09:10:28;;;;;;;0.25;0.10;;;17.30;27.40;;;;;;5153238;27;20041;-65
2021/12/25 09:12:56;;;;;;;1.55;0.20;;;17.20;27.20;;;;;;5153366;27;20035;-65
2021/12/25 09:15:25;;;;;;;0.30;0.00;;;17.10;27.30;;;;;;5134925;27;20091;-65
2021/12/25 09:17:52;;;;;;;0.65;0.10;;;17.00;27.30;;;;;;5134647;27;20050;-65
2021/12/25 09:20:19;;;;;;;0.30;0.00;;;16.80;27.40;;;;;;5134654;27;20046;-66
2021/12/25 09:22:45;;;;;;;1.20;0.25;;;16.70;27.50;;;;;;5134785;27;20474;-66
2021/12/25 09:25:10;;;;;;;0.90;0.00;;;16.60;27.60;;;;;;5134948;27;20126;-65
2021/12/25 09:27:36;;;;;;;0.47;0.10;;;16.40;27.60;;;;;;5134998;27;20744;-65
2021/12/25 09:30:04;;;;;;;1.23;0.10;;;16.30;27.70;;;;;;5134539;27;20046;-65
2021/12/25 09:32:30;;;;;;;0.85;0.00;;;16.20;27.90;;;;;;5134666;27;20050;-65
2021/12/25 09:35:00;;;;;;;0.38;0.10;;;16.00;27.90;;;;;;5135041;27;20039;-65
2021/12/25 09:37:26;;;;;;;0.40;0.03;;;15.90;27.90;;;;;;5135706;27;20514;-65
2021/12/25 09:39:52;;;;;;;0.13;0.00;;;15.80;28.00;;;;;;5138763;27;20049;-65
2021/12/25 09:42:19;;;;;;;0.28;0.00;;;15.70;28.10;;;;;;5138720;27;20030;-65
2021/12/25 09:44:45;;;;;;;0.22;0.00;;;15.60;28.20;;;;;;5138368;27;20050;-65
2021/12/25 09:47:10;;;;;;;1.85;0.10;;;15.50;28.20;;;;;;5157055;27;20042;-65
2021/12/25 09:49:39;;;;;;;0.95;0.25;;;15.40;28.30;;;;;;5157129;27;20041;-66
2021/12/25 09:52:05;;;;;;;0.45;0.00;;;15.20;28.30;;;;;;5137929;27;20054;-67
2021/12/25 09:54:33;;;;;;;0.75;0.10;;;15.10;28.40;;;;;;5156886;27;20394;-66
2021/12/25 09:57:02;;;;;;;0.50;0.10;;;15.00;28.60;;;;;;5156651;27;20473;-65
2021/12/25 09:59:28;;;;;;;0.20;0.00;;;14.90;28.60;;;;;;5138283;27;20493;-65
2021/12/25 10:01:55;;;;;;;1.55;0.13;;;14.70;28.60;;;;;;5138210;27;20085;-66
2021/12/25 10:10:13;;;;;;;0.50;0.10;;;14.60;28.60;;;;;;5111744;27;1151629;-65
2021/12/25 10:15:19;;;;;;;0.43;0.08;;;14.30;29.10;;;;;;5130227;27;20410;-65
2021/12/25 10:17:48;;;;;;;1.83;0.10;;;14.10;29.20;;;;;;5128970;28;20501;-65
2021/12/25 10:20:18;;;;;;;0.63;0.10;;;14.10;29.30;;;;;;5129420;28;20066;-65
2021/12/25 10:25:52;;;;;;;0.57;0.00;;;14.00;29.40;;;;;;5152858;27;1163953;-65
2021/12/25 10:28:23;;;;;;;0.68;0.03;;;14.10;29.50;;;;;;5153121;27;20482;-65
2021/12/25 10:30:59;;;;;;;1.02;0.10;;;14.30;29.50;;;;;;5153053;27;20109;-67
2021/12/25 10:39:12;;;;;;;0.75;0.08;;;14.90;29.00;;;;;;5151213;27;20733;-65
2021/12/25 10:41:49;;;;;;;1.00;0.10;;;15.80;28.20;;;;;;5129242;28;20105;-65
2021/12/25 10:44:20;;;;;;;0.65;0.10;;;16.10;28.00;;;;;;5129416;28;20364;-65
2021/12/25 10:49:35;;;;;;;0.52;0.10;;;16.80;27.60;;;;;;5130349;27;20354;-65
2021/12/25 10:55:18;;;;;;;0.55;0.10;;;17.50;26.90;;;;;;5109898;27;20898;-65
2021/12/25 10:57:52;;;;;;;0.45;0.00;;;17.80;26.60;;;;;;5108381;28;20044;-65
2021/12/25 11:03:08;;;;;;;0.95;0.10;;;18.00;26.40;;;;;;5130256;27;20394;-65
2021/12/25 11:05:36;;;;;;;0.25;0.00;;;18.00;26.20;;;;;;5130766;28;20039;-66
2021/12/25 11:24:26;;;;;;;0.40;0.00;;;17.60;26.20;;;;;;5153039;27;1162141;-65
2021/12/25 11:26:55;;;;;;;1.05;0.10;;;17.30;26.40;;;;;;5153309;27;20061;-65
2021/12/25 11:29:24;;;;;;;0.50;0.00;;;17.20;26.40;;;;;;5153262;27;20050;-65
2021/12/25 11:31:53;;;;;;;0.60;0.35;;;17.10;26.60;;;;;;5153318;27;20042;-65
2021/12/25 11:34:19;;;;;;;0.77;0.08;;;17.00;26.80;;;;;;5153141;27;20099;-65
2021/12/25 11:36:48;;;;;;;0.40;0.00;;;16.80;26.70;;;;;;5153288;27;20431;-65
2021/12/25 11:39:15;;;;;;;0.80;0.10;;;16.70;26.80;;;;;;5171708;27;20046;-65
2021/12/25 11:41:42;;;;;;;0.73;0.00;;;16.60;26.90;;;;;;5171922;27;20073;-65
2021/12/25 11:50:21;;;;;;;1.23;0.10;;;16.10;26.90;;;;;;5130237;27;20390;-65
2021/12/25 12:06:56;;;;;;;0.50;0.00;;;15.70;27.40;;;;;;5130432;27;20397;-65
2021/12/25 12:09:27;;;;;;;0.77;0.10;;;15.30;27.80;;;;;;5130315;27;20039;-65
2021/12/25 12:12:15;;;;;;;0.43;0.10;;;15.20;27.80;;;;;;5129165;28;20067;-65
2021/12/25 12:14:40;;;;;;;0.40;0.10;;;15.00;27.80;;;;;;5129074;28;20047;-65
2021/12/25 12:19:56;;;;;;;0.75;0.30;;;14.80;28.00;;;;;;5130349;27;20349;-65
2021/12/25 12:27:53;;;;;;;1.60;0.10;;;14.70;28.10;;;;;;5130335;27;20419;-65
2021/12/25 12:35:58;;;;;;;0.73;0.00;;;14.40;28.30;;;;;;5130225;27;20399;-65
2021/12/25 12:52:40;;;;;;;0.77;0.10;;;14.50;28.30;;;;;;5089465;28;20966;-66
2021/12/25 12:55:28;;;;;;;0.35;0.00;;;16.60;26.90;;;;;;5089350;28;20032;-65
2021/12/25 13:00:57;;;;;;;0.88;0.00;;;17.40;26.20;;;;;;5153392;27;1149354;-65
2021/12/25 13:03:25;;;;;;;1.02;0.00;;;17.70;26.10;;;;;;5153335;27;20046;-65
2021/12/25 13:06:09;;;;;;;0.35;0.10;;;18.10;25.90;;;;;;5153342;27;20456;-65
2021/12/25 13:08:37;;;;;;;0.75;0.10;;;18.30;25.60;;;;;;5153207;27;20034;-65
2021/12/25 13:11:19;;;;;;;0.90;0.15;;;18.50;25.60;;;;;;5153052;27;20046;-65
2021/12/25 13:13:53;;;;;;;0.25;0.00;;;18.60;25.30;;;;;;5152866;27;20034;-65
2021/12/25 13:16:24;;;;;;;0.22;0.10;;;18.60;25.40;;;;;;5153048;27;20431;-65
2021/12/25 13:18:55;;;;;;;0.70;0.10;;;18.60;25.30;;;;;;5152924;27;20043;-65
2021/12/25 13:21:25;;;;;;;0.77;0.05;;;18.60;25.30;;;;;;5152850;27;20053;-65
2021/12/25 13:23:56;;;;;;;0.70;0.00;;;18.50;25.30;;;;;;5171220;27;20070;-65
2021/12/25 13:26:33;;;;;;;;;;;18.40;25.30;;;;;;5152988;27;20040;-66
2021/12/25 13:29:00;;;;;;;0.77;0.10;;;18.40;25.30;;;;;;5152780;27;19919;-65
2021/12/25 13:31:28;;;;;;;0.90;0.10;;;18.40;25.50;;;;;;5171263;27;20034;-65
2021/12/25 13:36:35;;;;;;;0.35;0.08;;;18.30;25.50;;;;;;5130262;27;20387;-65
2021/12/25 13:39:08;;;;;;;0.30;0.10;;;18.00;25.60;;;;;;5128949;28;20039;-65
2021/12/25 13:52:33;;;;;;;0.70;0.10;;;17.60;25.80;;;;;;5157284;27;1152197;-65
2021/12/25 13:55:10;;;;;;;1.50;0.10;;;17.10;26.10;;;;;;5152927;27;20081;-65
2021/12/25 13:57:41;;;;;;;0.40;0.10;;;17.00;26.20;;;;;;5153371;27;20065;-65
2021/12/25 14:00:13;;;;;;;0.68;0.10;;;16.80;26.30;;;;;;5153315;27;20053;-65
2021/12/25 14:02:43;;;;;;;1.67;0.10;;;16.70;26.40;;;;;;5171805;27;20119;-65
2021/12/25 14:05:08;;;;;;;0.73;0.20;;;16.50;26.50;;;;;;5153206;27;20538;-65
2021/12/25 14:07:36;;;;;;;0.47;0.10;;;16.40;26.60;;;;;;5171503;27;20034;-65
2021/12/25 14:10:10;;;;;;;0.20;0.10;;;16.20;26.70;;;;;;5171401;27;20042;-65
2021/12/25 14:12:39;;;;;;;1.23;0.10;;;16.10;26.80;;;;;;5152767;27;20042;-65
2021/12/25 14:15:06;;;;;;;0.90;0.13;;;15.90;26.90;;;;;;5152663;27;20091;-64
2021/12/25 14:17:41;;;;;;;0.20;0.00;;;15.80;27.60;;;;;;5153123;27;20393;-65
2021/12/25 14:22:59;;;;;;;1.13;0.10;;;15.60;27.10;;;;;;5154858;27;1162128;-66
2021/12/25 14:25:28;;;;;;;0.73;0.10;;;15.40;27.30;;;;;;5153174;27;20279;-67
2021/12/25 14:31:16;;;;;;;1.45;0.10;;;15.20;27.50;;;;;;5152791;27;1163130;-65
2021/12/25 14:36:38;;;;;;;1.05;0.10;;;15.00;27.70;;;;;;5130184;27;20398;-65
2021/12/25 14:39:06;;;;;;;0.63;0.20;;;14.80;28.00;;;;;;5130383;27;20046;-65
2021/12/25 14:41:37;;;;;;;0.68;0.10;;;14.70;28.10;;;;;;5128921;28;20427;-64
2021/12/25 14:44:26;;;;;;;0.68;0.10;;;14.60;28.20;;;;;;5128868;28;20040;-65
2021/12/25 14:49:48;;;;;;;0.35;0.10;;;14.50;28.30;;;;;;5130216;27;20362;-66
2021/12/25 14:52:15;;;;;;;0.70;0.10;;;14.30;28.60;;;;;;5130229;27;20383;-65
2021/12/25 14:54:42;;;;;;;0.68;0.10;;;14.30;29.30;;;;;;5128867;28;20046;-65
2021/12/25 14:57:08;;;;;;;0.47;0.10;;;14.20;28.80;;;;;;5128805;28;20099;-66
2021/12/25 14:59:40;;;;;;;0.95;0.10;;;14.10;28.80;;;;;;5129265;28;20474;-65
2021/12/25 15:02:06;;;;;;;1.08;0.10;;;14.10;29.00;;;;;;5128667;28;20051;-65
2021/12/25 15:04:35;;;;;;;0.47;0.10;;;14.20;29.00;;;;;;5129170;28;20118;-65
2021/12/25 15:07:07;;;;;;;1.20;0.10;;;14.30;29.00;;;;;;5128842;28;20075;-65
2021/12/25 15:12:31;;;;;;;0.63;0.10;;;14.70;28.70;;;;;;5151357;27;20110;-66
2021/12/25 15:15:11;;;;;;;0.60;0.10;;;15.10;28.50;;;;;;5130159;27;20039;-65
2021/12/25 15:17:38;;;;;;;0.50;0.10;;;15.30;28.20;;;;;;5129205;28;20039;-64
2021/12/25 15:22:43;;;;;;;0.63;0.10;;;15.70;28.00;;;;;;5153021;27;1170320;-65
2021/12/25 15:25:25;;;;;;;0.40;0.10;;;16.50;27.60;;;;;;5153688;27;20370;-65
2021/12/25 15:27:54;;;;;;;0.30;0.10;;;16.80;27.30;;;;;;5153402;27;20038;-65
2021/12/25 15:30:29;;;;;;;1.38;0.10;;;17.20;27.00;;;;;;5153257;27;20046;-65
2021/12/25 15:33:01;;;;;;;0.47;0.10;;;17.50;26.70;;;;;;5153171;27;20051;-65
2021/12/25 15:35:31;;;;;;;0.30;0.10;;;17.80;26.50;;;;;;5171614;27;20430;-65
2021/12/25 15:37:57;;;;;;;0.40;0.10;;;17.90;26.30;;;;;;5171496;27;20033;-65
2021/12/25 15:40:28;;;;;;;0.93;0.10;;;18.00;26.30;;;;;;5171402;27;20027;-66
2021/12/25 15:42:53;;;;;;;;;;;18.00;26.10;;;;;;5153127;27;20522;-65
2021/12/25 15:45:20;;;;;;;1.25;0.10;;;18.10;25.90;;;;;;5152902;27;19915;-65
2021/12/25 15:47:48;;;;;;;0.60;0.03;;;18.00;26.10;;;;;;5171380;27;20035;-65
2021/12/25 15:50:20;;;;;;;0.73;0.10;;;18.00;26.10;;;;;;5152911;27;20039;-65
2021/12/25 15:52:46;;;;;;;0.28;0.10;;;17.90;26.10;;;;;;5152403;27;20046;-65
2021/12/25 15:55:13;;;;;;;0.20;0.10;;;17.90;26.20;;;;;;5152767;27;20050;-65
2021/12/25 15:57:39;;;;;;;0.47;0.10;;;17.70;26.20;;;;;;5171026;27;20111;-65
2021/12/25 16:00:08;;;;;;;1.10;0.10;;;17.60;26.30;;;;;;5152699;27;20478;-65
2021/12/25 16:02:34;;;;;;;1.10;0.10;;;17.50;26.40;;;;;;5152249;27;20038;-65
2021/12/25 16:04:59;;;;;;;0.73;0.10;;;17.40;26.40;;;;;;5170999;27;20485;-65
2021/12/25 16:07:28;;;;;;;0.25;0.10;;;17.30;26.50;;;;;;5170855;27;20390;-65
2021/12/25 16:09:54;;;;;;;0.55;0.10;;;17.20;26.60;;;;;;5152492;27;20041;-65
2021/12/25 16:12:20;;;;;;;0.82;0.20;;;17.00;26.70;;;;;;5170986;27;20404;-65